createdAt,value
2019-04-09T00:01:47.394Z,14.86
2019-04-09T00:04:14.869Z,14.80
2019-04-09T00:06:50.019Z,14.90
2019-04-09T00:09:16.635Z,14.93
2019-04-09T00:11:43.873Z,14.80
2019-04-09T00:14:11.390Z,14.86
2019-04-09T00:16:39.236Z,14.91
2019-04-09T00:19:06.918Z,14.88
2019-04-09T00:21:35.186Z,14.81
2019-04-09T00:24:02.918Z,14.77
2019-04-09T00:26:29.334Z,14.80
2019-04-09T00:28:56.842Z,14.72
2019-04-09T00:31:24.841Z,14.73
2019-04-09T00:33:52.688Z,14.67
2019-04-09T00:36:19.662Z,14.60
2019-04-09T00:38:47.632Z,14.61
2019-04-09T00:41:15.329Z,14.62
2019-04-09T00:43:41.742Z,14.63
2019-04-09T00:46:09.362Z,14.59
2019-04-09T00:48:38.658Z,14.44
2019-04-09T00:51:06.374Z,14.52
2019-04-09T00:53:34.130Z,14.46
2019-04-09T00:56:02.164Z,14.46
2019-04-09T00:58:28.782Z,14.47
2019-04-09T01:00:57.160Z,14.37
2019-04-09T01:03:23.905Z,14.37
2019-04-09T01:05:51.849Z,14.34
2019-04-09T01:08:19.000Z,14.24
2019-04-09T01:10:46.453Z,14.31
2019-04-09T01:13:14.076Z,14.23
2019-04-09T01:15:41.151Z,14.18
2019-04-09T01:18:08.864Z,14.20
2019-04-09T01:20:36.318Z,14.10
2019-04-09T01:23:06.005Z,14.06
2019-04-09T01:25:33.480Z,14.09
2019-04-09T01:28:02.037Z,13.97
2019-04-09T01:30:32.067Z,13.99
2019-04-09T01:33:01.988Z,13.95
2019-04-09T01:35:29.826Z,13.92
2019-04-09T01:37:58.177Z,13.77
2019-04-09T01:40:25.740Z,13.73
2019-04-09T01:42:54.506Z,13.69
2019-04-09T01:45:26.112Z,13.63
2019-04-09T01:47:54.059Z,13.56
2019-04-09T01:50:35.866Z,13.51
2019-04-09T01:53:05.244Z,13.50
2019-04-09T01:55:33.496Z,13.48
2019-04-09T01:58:01.959Z,13.41
2019-04-09T02:00:45.353Z,13.37
2019-04-09T02:03:27.673Z,13.26
2019-04-09T02:06:00.578Z,13.22
2019-04-09T02:08:32.694Z,13.09
2019-04-09T02:11:06.649Z,13.10
2019-04-09T02:13:34.120Z,13.02
2019-04-09T02:16:05.789Z,12.99
2019-04-09T02:18:49.914Z,12.89
2019-04-09T02:21:23.009Z,12.88
2019-04-09T02:23:51.227Z,12.84
2019-04-09T02:26:18.697Z,12.84
2019-04-09T02:28:46.293Z,12.81
2019-04-09T02:31:20.063Z,12.77
2019-04-09T02:33:50.916Z,12.73
2019-04-09T02:36:30.254Z,12.69
2019-04-09T02:39:00.799Z,12.69
2019-04-09T02:41:33.840Z,12.63
2019-04-09T02:44:17.581Z,12.56
2019-04-09T02:46:45.407Z,12.55
2019-04-09T02:49:29.547Z,12.56
2019-04-09T02:51:57.370Z,12.49
2019-04-09T02:54:44.145Z,12.41
2019-04-09T02:57:14.658Z,12.36
2019-04-09T02:59:48.463Z,12.37
2019-04-09T03:02:21.542Z,12.34
2019-04-09T03:04:49.367Z,12.30
2019-04-09T03:07:34.321Z,12.27
2019-04-09T03:10:07.573Z,12.24
2019-04-09T03:12:35.046Z,12.20
2019-04-09T03:15:03.314Z,12.10
2019-04-09T03:17:36.204Z,12.10
2019-04-09T03:20:09.950Z,11.95
2019-04-09T03:22:38.562Z,11.92
2019-04-09T03:25:12.106Z,11.89
2019-04-09T03:27:40.735Z,11.90
2019-04-09T03:30:10.175Z,11.87
2019-04-09T03:32:53.981Z,11.83
2019-04-09T03:35:25.582Z,11.79
2019-04-09T03:38:13.828Z,11.71
2019-04-09T03:40:45.709Z,11.73
2019-04-09T03:43:18.907Z,11.71
2019-04-09T03:45:48.360Z,11.71
2019-04-09T03:48:31.468Z,11.65
2019-04-09T03:51:17.061Z,11.59
2019-04-09T03:53:55.446Z,11.64
2019-04-09T03:56:27.532Z,11.58
2019-04-09T03:58:57.920Z,11.54
2019-04-09T04:01:37.070Z,11.49
2019-04-09T04:04:03.990Z,11.45
2019-04-09T04:06:36.994Z,11.46
2019-04-09T04:09:05.220Z,11.42
2019-04-09T04:11:38.230Z,11.39
2019-04-09T04:14:08.454Z,11.42
2019-04-09T04:16:48.778Z,11.34
2019-04-09T04:19:17.209Z,11.32
2019-04-09T04:21:46.250Z,11.30
2019-04-09T04:24:30.350Z,11.19
2019-04-09T04:27:15.772Z,11.22
2019-04-09T04:29:43.876Z,11.11
2019-04-09T04:32:22.970Z,11.08
2019-04-09T04:34:53.180Z,11.08
2019-04-09T04:37:39.589Z,11.09
2019-04-09T04:40:22.682Z,11.02
2019-04-09T04:43:04.978Z,10.94
2019-04-09T04:45:32.530Z,10.93
2019-04-09T04:48:00.794Z,10.88
2019-04-09T04:50:42.054Z,10.85
2019-04-09T04:53:23.237Z,10.84
2019-04-09T04:56:07.746Z,10.80
2019-04-09T04:58:49.400Z,10.81
2019-04-09T05:01:13.534Z,10.79
2019-04-09T05:03:42.574Z,10.66
2019-04-09T05:06:09.882Z,10.67
2019-04-09T05:08:53.118Z,10.67
2019-04-09T05:11:28.613Z,10.59
2019-04-09T05:14:12.484Z,10.66
2019-04-09T05:16:41.071Z,10.48
2019-04-09T05:19:11.918Z,10.56
2019-04-09T05:21:58.868Z,10.55
2019-04-09T05:24:27.068Z,10.48
2019-04-09T05:27:07.285Z,10.50
2019-04-09T05:29:49.608Z,10.54
2019-04-09T05:32:21.931Z,10.44
2019-04-09T05:34:54.899Z,10.45
2019-04-09T05:37:28.847Z,10.44
2019-04-09T05:39:58.915Z,10.46
2019-04-09T05:42:27.611Z,10.46
2019-04-09T05:44:59.924Z,10.43
2019-04-09T05:47:28.915Z,10.45
2019-04-09T05:50:13.009Z,10.44
2019-04-09T05:52:42.503Z,10.40
2019-04-09T05:55:16.260Z,10.47
2019-04-09T05:57:44.770Z,10.48
2019-04-09T06:00:18.468Z,10.44
2019-04-09T06:02:49.797Z,10.48
2019-04-09T06:05:18.710Z,10.45
2019-04-09T06:07:47.234Z,10.53
2019-04-09T06:10:14.609Z,10.48
2019-04-09T06:12:43.283Z,10.55
2019-04-09T06:15:10.862Z,10.49
2019-04-09T06:17:38.390Z,10.60
2019-04-09T06:20:05.740Z,10.59
2019-04-09T06:22:33.182Z,10.61
2019-04-09T06:25:01.568Z,10.63
2019-04-09T06:27:28.109Z,10.59
2019-04-09T06:29:56.277Z,10.65
2019-04-09T06:32:31.024Z,10.58
2019-04-09T06:34:58.508Z,10.65
2019-04-09T06:37:31.891Z,10.72
2019-04-09T06:40:01.032Z,10.71
2019-04-09T06:42:34.376Z,10.71
2019-04-09T06:45:20.582Z,10.76
2019-04-09T06:47:48.914Z,10.75
2019-04-09T06:50:19.422Z,10.80
2019-04-09T06:52:50.936Z,10.78
2019-04-09T06:55:36.956Z,10.82
2019-04-09T06:58:10.433Z,10.84
2019-04-09T07:00:37.955Z,10.92
2019-04-09T07:03:07.902Z,10.90
2019-04-09T07:05:58.109Z,10.96
2019-04-09T07:08:24.944Z,10.97
2019-04-09T07:11:08.820Z,10.98
2019-04-09T07:13:29.847Z,11.08
2019-04-09T07:16:12.167Z,11.15
2019-04-09T07:18:55.653Z,11.18
2019-04-09T07:21:38.206Z,11.21
2019-04-09T07:24:12.740Z,11.25
2019-04-09T07:26:40.358Z,11.31
2019-04-09T07:29:13.406Z,11.35
2019-04-09T07:31:46.941Z,11.35
2019-04-09T07:34:17.967Z,11.37
2019-04-09T07:36:50.687Z,11.45
2019-04-09T07:39:26.538Z,11.47
2019-04-09T07:42:10.889Z,11.40
2019-04-09T07:44:40.141Z,11.40
2019-04-09T07:47:13.644Z,11.45
2019-04-09T07:49:55.979Z,11.47
2019-04-09T07:52:33.129Z,11.42
2019-04-09T07:55:06.752Z,11.45
2019-04-09T07:57:37.813Z,11.47
2019-04-09T08:00:13.565Z,11.43
2019-04-09T08:02:45.940Z,11.42
2019-04-09T08:05:15.065Z,11.45
2019-04-09T08:07:47.305Z,11.49
2019-04-09T08:10:17.692Z,11.52
2019-04-09T08:12:50.138Z,11.56
2019-04-09T08:15:21.152Z,11.57
2019-04-09T08:18:03.043Z,11.58
2019-04-09T08:20:37.941Z,11.58
2019-04-09T08:23:04.997Z,11.60
2019-04-09T08:25:48.247Z,11.59
2019-04-09T08:28:31.332Z,11.62
2019-04-09T08:31:00.240Z,11.63
2019-04-09T08:33:33.395Z,11.62
2019-04-09T08:36:10.655Z,11.55
2019-04-09T08:38:36.717Z,11.52
2019-04-09T08:41:06.365Z,11.58
2019-04-09T08:43:37.038Z,11.46
2019-04-09T08:46:18.145Z,11.55
2019-04-09T08:48:51.663Z,11.49
2019-04-09T08:51:25.182Z,11.55
2019-04-09T08:53:52.521Z,11.54
2019-04-09T08:56:21.776Z,11.50
2019-04-09T08:58:56.995Z,11.55
2019-04-09T09:01:48.744Z,11.50
2019-04-09T09:04:11.075Z,11.60
2019-04-09T09:06:33.605Z,11.53
2019-04-09T09:09:07.519Z,11.56
2019-04-09T09:11:32.602Z,11.70
2019-04-09T09:14:13.362Z,11.69
2019-04-09T09:16:57.782Z,11.73
2019-04-09T09:19:32.151Z,11.74
2019-04-09T09:22:03.580Z,11.82
2019-04-09T09:24:44.057Z,11.85
2019-04-09T09:27:22.446Z,11.93
2019-04-09T09:29:54.126Z,12.00
2019-04-09T09:32:34.863Z,12.00
2019-04-09T09:35:15.954Z,12.03
2019-04-09T09:37:59.890Z,12.07
2019-04-09T09:40:31.404Z,12.09
2019-04-09T09:42:56.391Z,12.18
2019-04-09T09:45:35.709Z,12.26
2019-04-09T09:48:07.207Z,12.27
2019-04-09T09:50:49.647Z,12.33
2019-04-09T09:53:27.381Z,12.38
2019-04-09T09:55:56.274Z,12.43
2019-04-09T09:58:24.251Z,12.45
2019-04-09T10:01:05.065Z,12.50
2019-04-09T10:03:36.005Z,12.58
2019-04-09T10:06:06.157Z,12.69
2019-04-09T10:08:32.687Z,12.74
2019-04-09T10:11:01.336Z,12.80
2019-04-09T10:13:32.442Z,12.88
2019-04-09T10:16:02.327Z,12.93
2019-04-09T10:18:34.460Z,13.02
2019-04-09T10:21:04.632Z,13.08
2019-04-09T10:23:31.704Z,13.09
2019-04-09T10:26:03.320Z,13.25
2019-04-09T10:28:33.968Z,13.32
2019-04-09T10:31:21.104Z,13.33
2019-04-09T10:33:55.457Z,13.41
2019-04-09T10:36:25.918Z,13.44
2019-04-09T10:39:01.554Z,13.46
2019-04-09T10:41:46.346Z,13.48
2019-04-09T10:44:07.632Z,13.58
2019-04-09T10:46:44.174Z,13.63
2019-04-09T10:49:12.249Z,13.62
2019-04-09T10:51:41.834Z,13.65
2019-04-09T10:54:14.565Z,13.69
2019-04-09T10:56:40.833Z,13.67
2019-04-09T10:59:11.714Z,13.67
2019-04-09T11:01:42.464Z,13.70
2019-04-09T11:04:13.334Z,13.77
2019-04-09T11:06:41.971Z,13.79
2019-04-09T11:09:20.123Z,13.79
2019-04-09T11:11:53.095Z,13.94
2019-04-09T11:14:20.860Z,14.02
2019-04-09T11:16:52.606Z,14.12
2019-04-09T11:19:25.171Z,14.17
2019-04-09T11:22:03.811Z,14.22
2019-04-09T11:24:32.910Z,14.22
2019-04-09T11:27:03.295Z,14.25
2019-04-09T11:29:33.016Z,14.12
2019-04-09T11:32:14.181Z,14.21
2019-04-09T11:34:57.600Z,14.23
2019-04-09T11:37:29.569Z,14.26
2019-04-09T11:40:00.766Z,14.30
2019-04-09T11:42:31.783Z,14.43
2019-04-09T11:45:05.085Z,14.42
2019-04-09T11:47:35.067Z,14.46
2019-04-09T11:50:07.779Z,14.54
2019-04-09T11:52:36.475Z,14.55
2019-04-09T11:55:07.686Z,14.65
2019-04-09T11:57:35.131Z,14.61
2019-04-09T12:00:19.246Z,14.65
2019-04-09T12:03:01.594Z,14.55
2019-04-09T12:05:34.742Z,14.69
2019-04-09T12:08:02.602Z,14.76
2019-04-09T12:10:32.344Z,14.80
2019-04-09T12:13:12.285Z,14.86
2019-04-09T12:15:40.610Z,14.90
2019-04-09T12:18:11.349Z,15.01
2019-04-09T12:20:38.399Z,15.03
2019-04-09T12:23:11.327Z,14.92
2019-04-09T12:25:44.589Z,14.96
2019-04-09T12:28:19.139Z,15.08
2019-04-09T12:30:45.883Z,15.03
2019-04-09T12:33:15.517Z,15.10
2019-04-09T12:35:43.141Z,15.13
2019-04-09T12:38:12.436Z,15.18
2019-04-09T12:40:39.631Z,15.30
2019-04-09T12:43:12.698Z,15.30
2019-04-09T12:45:58.958Z,15.34
2019-04-09T12:48:26.401Z,15.34
2019-04-09T12:50:56.488Z,15.28
2019-04-09T12:53:27.240Z,15.21
2019-04-09T12:55:56.341Z,15.23
2019-04-09T12:58:28.714Z,15.27
2019-04-09T13:01:11.970Z,15.31
2019-04-09T13:03:45.039Z,15.28
2019-04-09T13:06:19.148Z,15.30
2019-04-09T13:08:52.866Z,15.34
2019-04-09T13:11:35.818Z,15.35
2019-04-09T13:14:18.141Z,15.44
2019-04-09T13:16:49.662Z,15.48
2019-04-09T13:19:15.907Z,15.47
2019-04-09T13:21:43.441Z,15.37
2019-04-09T13:24:31.576Z,15.48
2019-04-09T13:26:58.959Z,15.51
2019-04-09T13:29:31.994Z,15.53
2019-04-09T13:32:00.170Z,15.46
2019-04-09T13:34:33.285Z,15.54
2019-04-09T13:37:06.613Z,15.53
2019-04-09T13:39:35.869Z,15.50
2019-04-09T13:42:08.982Z,15.61
2019-04-09T13:44:41.286Z,15.63
2019-04-09T13:47:09.042Z,15.70
2019-04-09T13:49:38.977Z,15.63
2019-04-09T13:52:22.764Z,15.71
2019-04-09T13:54:50.335Z,15.77
2019-04-09T13:57:17.913Z,15.69
2019-04-09T13:59:45.313Z,15.81
2019-04-09T14:02:12.788Z,15.82
2019-04-09T14:04:40.243Z,15.86
2019-04-09T14:07:07.710Z,15.85
2019-04-09T14:09:36.161Z,15.89
2019-04-09T14:12:03.881Z,15.97
2019-04-09T14:14:31.022Z,15.98
2019-04-09T14:16:57.825Z,16.02
2019-04-09T14:19:26.145Z,16.08
2019-04-09T14:21:53.668Z,15.97
2019-04-09T14:24:20.733Z,16.04
2019-04-09T14:26:47.980Z,16.04
2019-04-09T14:29:16.562Z,15.98
2019-04-09T14:31:42.910Z,15.92
2019-04-09T14:34:11.315Z,15.92
2019-04-09T14:36:37.853Z,15.96
2019-04-09T14:39:05.340Z,15.98
2019-04-09T14:41:32.805Z,16.00
2019-04-09T14:44:00.456Z,15.86
2019-04-09T14:46:27.728Z,15.92
2019-04-09T14:48:55.377Z,15.98
2019-04-09T14:51:23.512Z,15.96
2019-04-09T14:53:50.995Z,16.00
2019-04-09T14:56:19.408Z,15.90
2019-04-09T14:58:45.930Z,15.88
2019-04-09T15:01:13.385Z,15.76
2019-04-09T15:03:41.909Z,15.81
2019-04-09T15:06:08.378Z,15.75
2019-04-09T15:08:35.854Z,15.69
2019-04-09T15:11:03.323Z,15.79
2019-04-09T15:13:30.744Z,15.78
2019-04-09T15:15:58.232Z,15.84
2019-04-09T15:18:25.705Z,15.87
2019-04-09T15:20:59.538Z,15.86
2019-04-09T15:23:28.063Z,15.97
2019-04-09T15:25:55.531Z,16.00
2019-04-09T15:28:23.868Z,15.94
2019-04-09T15:30:51.389Z,16.02
2019-04-09T15:33:27.475Z,16.05
2019-04-09T15:35:45.953Z,16.07
2019-04-09T15:38:13.119Z,15.94
2019-04-09T15:40:40.438Z,16.00
2019-04-09T15:43:07.930Z,16.02
2019-04-09T15:45:35.413Z,16.00
2019-04-09T15:48:02.867Z,16.01
2019-04-09T15:50:30.594Z,15.99
2019-04-09T15:52:58.431Z,15.94
2019-04-09T15:55:25.500Z,15.89
2019-04-09T15:57:52.995Z,15.82
2019-04-09T16:00:20.576Z,15.71
2019-04-09T16:02:48.906Z,15.71
2019-04-09T16:05:15.962Z,15.56
2019-04-09T16:07:42.751Z,15.52
2019-04-09T16:10:10.276Z,15.46
2019-04-09T16:12:37.914Z,15.55
2019-04-09T16:15:06.196Z,15.57
2019-04-09T16:17:33.229Z,15.58
2019-04-09T16:20:00.138Z,15.50
2019-04-09T16:22:28.433Z,15.46
2019-04-09T16:24:55.214Z,15.37
2019-04-09T16:27:22.697Z,15.35
2019-04-09T16:29:50.656Z,15.33
2019-04-09T16:32:17.755Z,15.22
2019-04-09T16:34:45.211Z,15.15
2019-04-09T16:37:16.441Z,15.12
2019-04-09T16:39:40.217Z,15.13
2019-04-09T16:42:08.281Z,15.03
2019-04-09T16:44:35.985Z,14.96
2019-04-09T16:47:02.579Z,14.90
2019-04-09T16:49:30.185Z,14.86
2019-04-09T16:51:57.778Z,14.84
2019-04-09T16:54:27.096Z,14.77
2019-04-09T16:56:53.436Z,14.70
2019-04-09T16:59:21.946Z,14.74
2019-04-09T17:01:49.893Z,14.69
2019-04-09T17:04:24.112Z,14.67
2019-04-09T17:06:45.564Z,14.56
2019-04-09T17:09:27.587Z,14.57
2019-04-09T17:11:40.526Z,14.50
2019-04-09T17:14:09.066Z,14.48
2019-04-09T17:16:36.348Z,14.48
2019-04-09T17:19:03.353Z,14.45
2019-04-09T17:21:30.406Z,14.40
2019-04-09T17:23:58.158Z,14.42
2019-04-09T17:26:26.321Z,14.33
2019-04-09T17:28:54.621Z,14.34
2019-04-09T17:31:23.298Z,14.28
2019-04-09T17:33:48.405Z,14.35
2019-04-09T17:36:15.864Z,14.33
2019-04-09T17:38:44.256Z,14.25
2019-04-09T17:41:10.784Z,14.20
2019-04-09T17:43:38.263Z,14.23
2019-04-09T17:46:06.793Z,14.11
2019-04-09T17:48:33.932Z,14.11
2019-04-09T17:51:01.072Z,14.08
2019-04-09T17:53:29.214Z,14.03
2019-04-09T17:55:57.988Z,13.98
2019-04-09T17:58:25.434Z,13.98
2019-04-09T18:00:53.336Z,13.89
2019-04-09T18:03:22.951Z,13.84
2019-04-09T18:05:50.765Z,13.86
2019-04-09T18:08:17.302Z,13.84
2019-04-09T18:10:45.418Z,13.73
2019-04-09T18:13:12.407Z,13.74
2019-04-09T18:15:40.061Z,13.66
2019-04-09T18:18:08.186Z,13.62
2019-04-09T18:20:34.837Z,13.65
2019-04-09T18:23:02.290Z,13.61
2019-04-09T18:25:30.407Z,13.49
2019-04-09T18:27:58.145Z,13.45
2019-04-09T18:30:26.334Z,13.45
2019-04-09T18:32:53.854Z,13.42
2019-04-09T18:35:20.313Z,13.41
2019-04-09T18:37:48.367Z,13.37
2019-04-09T18:40:16.405Z,13.34
2019-04-09T18:42:43.480Z,13.31
2019-04-09T18:45:10.195Z,13.32
2019-04-09T18:47:38.191Z,13.31
2019-04-09T18:50:06.465Z,13.25
2019-04-09T18:52:33.584Z,13.23
2019-04-09T18:55:02.315Z,13.19
2019-04-09T18:57:28.542Z,13.18
2019-04-09T18:59:56.005Z,13.18
2019-04-09T19:02:23.465Z,13.12
2019-04-09T19:05:02.746Z,13.15
2019-04-09T19:07:18.417Z,13.01
2019-04-09T19:09:46.329Z,13.05
2019-04-09T19:12:13.353Z,13.05
2019-04-09T19:14:40.937Z,12.96
2019-04-09T19:17:08.263Z,12.98
2019-04-09T19:19:35.696Z,12.95
2019-04-09T19:22:03.134Z,12.89
2019-04-09T19:24:31.291Z,12.85
2019-04-09T19:26:59.083Z,12.87
2019-04-09T19:29:26.777Z,12.74
2019-04-09T19:31:53.842Z,12.80
2019-04-09T19:34:21.445Z,12.74
2019-04-09T19:36:48.718Z,12.74
2019-04-09T19:39:16.936Z,12.64
2019-04-09T19:41:43.875Z,12.63
2019-04-09T19:44:11.134Z,12.64
2019-04-09T19:46:38.711Z,12.68
2019-04-09T19:49:06.527Z,12.73
2019-04-09T19:51:33.615Z,12.66
2019-04-09T19:54:01.342Z,12.62
2019-04-09T19:56:29.421Z,12.60
2019-04-09T19:58:57.338Z,12.60
2019-04-09T20:01:24.346Z,12.59
2019-04-09T20:03:52.704Z,12.43
2019-04-09T20:06:19.465Z,12.45
2019-04-09T20:08:47.417Z,12.40
2019-04-09T20:11:15.111Z,12.45
2019-04-09T20:13:41.600Z,12.41
2019-04-09T20:16:09.070Z,12.29
2019-04-09T20:18:37.652Z,12.32
2019-04-09T20:21:04.132Z,12.30
2019-04-09T20:23:31.520Z,12.28
2019-04-09T20:26:00.022Z,12.27
2019-04-09T20:28:27.856Z,12.22
2019-04-09T20:30:54.756Z,12.25
2019-04-09T20:33:23.252Z,12.19
2019-04-09T20:35:52.443Z,12.12
2019-04-09T20:38:17.271Z,12.12
2019-04-09T20:40:44.733Z,12.08
2019-04-09T20:43:13.175Z,12.11
2019-04-09T20:45:40.614Z,12.06
2019-04-09T20:48:07.159Z,12.09
2019-04-09T20:50:35.463Z,12.06
2019-04-09T20:53:03.118Z,11.95
2019-04-09T20:55:32.079Z,11.97
2019-04-09T20:58:00.380Z,11.88
2019-04-09T21:00:33.375Z,11.92
2019-04-09T21:03:03.385Z,11.86
2019-04-09T21:05:30.823Z,11.82
2019-04-09T21:07:58.504Z,11.89
2019-04-09T21:10:26.624Z,11.88
2019-04-09T21:12:53.194Z,11.79
2019-04-09T21:15:20.656Z,11.78
2019-04-09T21:17:48.108Z,11.71
2019-04-09T21:20:16.198Z,11.75
2019-04-09T21:22:43.148Z,11.77
2019-04-09T21:25:10.611Z,11.71
2019-04-09T21:27:38.098Z,11.71
2019-04-09T21:30:06.114Z,11.62
2019-04-09T21:32:35.271Z,11.60
2019-04-09T21:35:01.259Z,11.63
2019-04-09T21:37:28.470Z,11.49
2019-04-09T21:39:56.012Z,11.56
2019-04-09T21:42:24.460Z,11.53
2019-04-09T21:44:51.182Z,11.55
2019-04-09T21:47:18.469Z,11.44
2019-04-09T21:49:46.421Z,11.44
2019-04-09T21:52:13.292Z,11.41
2019-04-09T21:54:41.936Z,11.36
2019-04-09T21:57:09.129Z,11.28
2019-04-09T21:59:35.664Z,11.16
2019-04-09T22:02:03.704Z,11.14
2019-04-09T22:04:31.596Z,11.19
2019-04-09T22:06:58.808Z,11.23
2019-04-09T22:09:25.549Z,11.18
2019-04-09T22:11:53.303Z,11.15
2019-04-09T22:14:21.034Z,11.06
2019-04-09T22:16:48.296Z,11.01
2019-04-09T22:19:15.309Z,10.93
2019-04-09T22:21:42.843Z,10.98
2019-04-09T22:24:10.331Z,10.98
2019-04-09T22:26:37.969Z,11.00
2019-04-09T22:29:05.203Z,10.89
2019-04-09T22:31:34.570Z,10.88
2019-04-09T22:34:00.103Z,10.81
2019-04-09T22:36:33.870Z,10.78
2019-04-09T22:38:55.863Z,10.79
2019-04-09T22:41:22.470Z,10.78
2019-04-09T22:43:51.013Z,10.70
2019-04-09T22:46:18.116Z,10.75
2019-04-09T22:48:44.819Z,10.72
2019-04-09T22:51:12.624Z,10.74
2019-04-09T22:53:40.529Z,10.66
2019-04-09T22:56:07.204Z,10.69
2019-04-09T22:58:35.049Z,10.66
2019-04-09T23:01:05.695Z,10.59
2019-04-09T23:03:47.611Z,10.61
2019-04-09T23:06:23.850Z,10.60
2019-04-09T23:08:51.603Z,10.51
2019-04-09T23:11:28.586Z,10.56
2019-04-09T23:13:55.816Z,10.49
2019-04-09T23:16:23.268Z,10.42
2019-04-09T23:18:51.111Z,10.41
2019-04-09T23:21:19.213Z,10.44
2019-04-09T23:23:46.821Z,10.36
2019-04-09T23:26:13.412Z,10.41
2019-04-09T23:28:41.453Z,10.34
2019-04-09T23:31:08.960Z,10.32
2019-04-09T23:33:36.556Z,10.26
2019-04-09T23:36:04.023Z,10.21
2019-04-09T23:38:32.581Z,10.27
2019-04-09T23:40:59.711Z,10.22
2019-04-09T23:43:26.411Z,10.20
2019-04-09T23:45:54.818Z,10.15
2019-04-09T23:48:22.053Z,10.16
2019-04-09T23:50:49.839Z,10.17
2019-04-09T23:53:16.881Z,10.13
2019-04-09T23:55:43.677Z,10.07
2019-04-09T23:58:11.320Z,10.05
